sensor_id;sensor_type;location;lat;lon;timestamp;P1;durP1;ratioP1;P2;durP2;ratioP2
63046;SDS011;62025;39.238;9.126;2024-01-07T00:01:57;14.15;;;1.70;;
63046;SDS011;62025;39.238;9.126;2024-01-07T00:04:23;8.93;;;1.70;;
63046;SDS011;62025;39.238;9.126;2024-01-07T00:06:49;10.10;;;1.90;;
63046;SDS011;62025;39.238;9.126;2024-01-07T00:09:16;8.82;;;1.42;;
63046;SDS011;62025;39.238;9.126;2024-01-07T00:11:42;5.97;;;1.35;;
63046;SDS011;62025;39.238;9.126;2024-01-07T00:14:08;9.18;;;1.50;;
63046;SDS011;62025;39.238;9.126;2024-01-07T00:16:34;9.05;;;1.73;;
63046;SDS011;62025;39.238;9.126;2024-01-07T00:19:00;9.93;;;2.40;;
63046;SDS011;62025;39.238;9.126;2024-01-07T00:21:26;8.60;;;1.65;;
63046;SDS011;62025;39.238;9.126;2024-01-07T00:23:52;8.85;;;1.67;;
63046;SDS011;62025;39.238;9.126;2024-01-07T00:26:18;10.55;;;1.92;;
63046;SDS011;62025;39.238;9.126;2024-01-07T00:28:44;11.93;;;2.05;;
63046;SDS011;62025;39.238;9.126;2024-01-07T00:31:11;11.13;;;1.80;;
63046;SDS011;62025;39.238;9.126;2024-01-07T00:33:37;9.48;;;2.05;;
63046;SDS011;62025;39.238;9.126;2024-01-07T00:36:03;9.40;;;2.08;;
63046;SDS011;62025;39.238;9.126;2024-01-07T00:38:30;9.48;;;2.00;;
63046;SDS011;62025;39.238;9.126;2024-01-07T00:40:56;8.43;;;1.52;;
63046;SDS011;62025;39.238;9.126;2024-01-07T00:43:22;8.05;;;1.50;;
63046;SDS011;62025;39.238;9.126;2024-01-07T00:45:48;8.70;;;1.88;;
63046;SDS011;62025;39.238;9.126;2024-01-07T00:48:14;9.05;;;1.42;;
63046;SDS011;62025;39.238;9.126;2024-01-07T00:50:40;7.15;;;1.55;;
63046;SDS011;62025;39.238;9.126;2024-01-07T00:53:07;9.50;;;1.85;;
63046;SDS011;62025;39.238;9.126;2024-01-07T00:55:33;10.05;;;1.95;;
63046;SDS011;62025;39.238;9.126;2024-01-07T00:58:01;8.23;;;1.45;;
63046;SDS011;62025;39.238;9.126;2024-01-07T01:00:27;9.48;;;1.27;;
63046;SDS011;62025;39.238;9.126;2024-01-07T01:02:54;8.25;;;1.50;;
63046;SDS011;62025;39.238;9.126;2024-01-07T01:05:21;6.32;;;1.30;;
63046;SDS011;62025;39.238;9.126;2024-01-07T01:07:47;8.85;;;1.30;;
63046;SDS011;62025;39.238;9.126;2024-01-07T01:10:13;8.43;;;1.60;;
63046;SDS011;62025;39.238;9.126;2024-01-07T01:12:43;5.80;;;1.30;;
63046;SDS011;62025;39.238;9.126;2024-01-07T01:15:09;8.25;;;1.58;;
63046;SDS011;62025;39.238;9.126;2024-01-07T01:17:35;9.88;;;1.42;;
63046;SDS011;62025;39.238;9.126;2024-01-07T01:20:02;9.45;;;1.70;;
63046;SDS011;62025;39.238;9.126;2024-01-07T01:22:28;6.03;;;1.30;;
63046;SDS011;62025;39.238;9.126;2024-01-07T01:24:54;8.95;;;1.65;;
63046;SDS011;62025;39.238;9.126;2024-01-07T01:27:21;11.02;;;1.70;;
63046;SDS011;62025;39.238;9.126;2024-01-07T01:29:47;4.72;;;1.27;;
63046;SDS011;62025;39.238;9.126;2024-01-07T01:32:13;9.95;;;1.30;;
63046;SDS011;62025;39.238;9.126;2024-01-07T01:34:40;11.77;;;1.50;;
63046;SDS011;62025;39.238;9.126;2024-01-07T01:37:07;8.23;;;1.70;;
63046;SDS011;62025;39.238;9.126;2024-01-07T01:39:34;9.57;;;1.50;;
63046;SDS011;62025;39.238;9.126;2024-01-07T01:42:00;9.60;;;1.40;;
63046;SDS011;62025;39.238;9.126;2024-01-07T01:44:26;9.32;;;1.70;;
63046;SDS011;62025;39.238;9.126;2024-01-07T01:46:57;10.40;;;1.67;;
63046;SDS011;62025;39.238;9.126;2024-01-07T01:49:25;8.93;;;1.45;;
63046;SDS011;62025;39.238;9.126;2024-01-07T01:51:52;10.77;;;1.73;;
63046;SDS011;62025;39.238;9.126;2024-01-07T01:54:19;6.15;;;1.35;;
63046;SDS011;62025;39.238;9.126;2024-01-07T01:56:46;9.25;;;1.35;;
63046;SDS011;62025;39.238;9.126;2024-01-07T01:59:14;9.55;;;1.52;;
63046;SDS011;62025;39.238;9.126;2024-01-07T02:01:41;11.05;;;1.50;;
63046;SDS011;62025;39.238;9.126;2024-01-07T02:04:08;6.55;;;1.20;;
63046;SDS011;62025;39.238;9.126;2024-01-07T02:06:35;5.97;;;1.40;;
63046;SDS011;62025;39.238;9.126;2024-01-07T02:09:01;8.85;;;1.55;;
63046;SDS011;62025;39.238;9.126;2024-01-07T02:11:28;6.93;;;1.80;;
63046;SDS011;62025;39.238;9.126;2024-01-07T02:13:54;7.53;;;1.33;;
63046;SDS011;62025;39.238;9.126;2024-01-07T02:16:20;8.75;;;1.67;;
63046;SDS011;62025;39.238;9.126;2024-01-07T02:18:46;9.02;;;1.40;;
63046;SDS011;62025;39.238;9.126;2024-01-07T02:21:13;5.82;;;1.27;;
63046;SDS011;62025;39.238;9.126;2024-01-07T02:23:40;5.28;;;1.10;;
63046;SDS011;62025;39.238;9.126;2024-01-07T02:26:06;10.77;;;2.00;;
63046;SDS011;62025;39.238;9.126;2024-01-07T02:28:33;7.97;;;1.55;;
63046;SDS011;62025;39.238;9.126;2024-01-07T02:30:59;8.50;;;1.45;;
63046;SDS011;62025;39.238;9.126;2024-01-07T02:33:26;6.78;;;1.60;;
63046;SDS011;62025;39.238;9.126;2024-01-07T02:35:52;10.50;;;1.73;;
63046;SDS011;62025;39.238;9.126;2024-01-07T02:38:18;5.38;;;1.40;;
63046;SDS011;62025;39.238;9.126;2024-01-07T02:40:44;7.97;;;1.30;;
63046;SDS011;62025;39.238;9.126;2024-01-07T02:43:10;9.70;;;1.50;;
63046;SDS011;62025;39.238;9.126;2024-01-07T02:45:35;8.63;;;1.15;;
63046;SDS011;62025;39.238;9.126;2024-01-07T02:48:02;10.60;;;2.03;;
63046;SDS011;62025;39.238;9.126;2024-01-07T02:50:28;10.48;;;1.88;;
63046;SDS011;62025;39.238;9.126;2024-01-07T02:52:54;7.63;;;1.50;;
63046;SDS011;62025;39.238;9.126;2024-01-07T02:55:20;13.68;;;1.35;;
63046;SDS011;62025;39.238;9.126;2024-01-07T02:57:46;8.95;;;1.48;;
63046;SDS011;62025;39.238;9.126;2024-01-07T03:00:12;9.10;;;2.03;;
63046;SDS011;62025;39.238;9.126;2024-01-07T03:02:39;9.52;;;1.42;;
63046;SDS011;62025;39.238;9.126;2024-01-07T03:05:05;8.18;;;1.52;;
63046;SDS011;62025;39.238;9.126;2024-01-07T03:07:31;5.35;;;1.10;;
63046;SDS011;62025;39.238;9.126;2024-01-07T03:09:57;7.55;;;1.25;;
63046;SDS011;62025;39.238;9.126;2024-01-07T03:12:23;6.97;;;1.45;;
63046;SDS011;62025;39.238;9.126;2024-01-07T03:14:49;8.40;;;1.10;;
63046;SDS011;62025;39.238;9.126;2024-01-07T03:17:15;6.28;;;1.70;;
63046;SDS011;62025;39.238;9.126;2024-01-07T03:19:42;9.18;;;1.50;;
63046;SDS011;62025;39.238;9.126;2024-01-07T03:22:08;9.48;;;1.20;;
63046;SDS011;62025;39.238;9.126;2024-01-07T03:24:34;10.00;;;1.17;;
63046;SDS011;62025;39.238;9.126;2024-01-07T03:27:00;6.97;;;1.27;;
63046;SDS011;62025;39.238;9.126;2024-01-07T03:29:26;6.75;;;1.20;;
63046;SDS011;62025;39.238;9.126;2024-01-07T03:31:52;10.15;;;1.40;;
63046;SDS011;62025;39.238;9.126;2024-01-07T03:34:19;12.25;;;1.75;;
63046;SDS011;62025;39.238;9.126;2024-01-07T03:36:45;6.28;;;1.40;;
63046;SDS011;62025;39.238;9.126;2024-01-07T03:39:11;8.85;;;1.25;;
63046;SDS011;62025;39.238;9.126;2024-01-07T03:41:37;4.85;;;1.30;;
63046;SDS011;62025;39.238;9.126;2024-01-07T03:44:03;4.95;;;1.10;;
63046;SDS011;62025;39.238;9.126;2024-01-07T03:46:29;5.80;;;1.33;;
63046;SDS011;62025;39.238;9.126;2024-01-07T03:48:56;7.60;;;1.45;;
63046;SDS011;62025;39.238;9.126;2024-01-07T03:51:22;8.38;;;1.45;;
63046;SDS011;62025;39.238;9.126;2024-01-07T03:53:48;8.00;;;1.08;;
63046;SDS011;62025;39.238;9.126;2024-01-07T03:56:14;5.40;;;1.27;;
63046;SDS011;62025;39.238;9.126;2024-01-07T03:58:40;5.43;;;1.02;;
63046;SDS011;62025;39.238;9.126;2024-01-07T04:01:06;3.92;;;1.15;;
63046;SDS011;62025;39.238;9.126;2024-01-07T04:03:32;5.57;;;1.02;;
63046;SDS011;62025;39.238;9.126;2024-01-07T04:05:58;6.10;;;1.50;;
63046;SDS011;62025;39.238;9.126;2024-01-07T04:08:24;7.47;;;1.13;;
63046;SDS011;62025;39.238;9.126;2024-01-07T04:10:50;7.53;;;1.80;;
63046;SDS011;62025;39.238;9.126;2024-01-07T04:13:16;8.07;;;1.27;;
63046;SDS011;62025;39.238;9.126;2024-01-07T04:15:42;7.35;;;1.33;;
63046;SDS011;62025;39.238;9.126;2024-01-07T04:18:08;6.88;;;1.30;;
63046;SDS011;62025;39.238;9.126;2024-01-07T04:20:34;7.35;;;1.40;;
63046;SDS011;62025;39.238;9.126;2024-01-07T04:23:00;6.30;;;1.30;;
63046;SDS011;62025;39.238;9.126;2024-01-07T04:25:26;8.98;;;1.27;;
63046;SDS011;62025;39.238;9.126;2024-01-07T04:27:52;6.07;;;1.52;;
63046;SDS011;62025;39.238;9.126;2024-01-07T04:30:18;7.55;;;1.27;;
63046;SDS011;62025;39.238;9.126;2024-01-07T04:32:44;5.85;;;1.20;;
63046;SDS011;62025;39.238;9.126;2024-01-07T04:35:10;10.15;;;1.42;;
63046;SDS011;62025;39.238;9.126;2024-01-07T04:37:37;9.18;;;1.42;;
63046;SDS011;62025;39.238;9.126;2024-01-07T04:40:03;8.27;;;1.33;;
63046;SDS011;62025;39.238;9.126;2024-01-07T04:42:30;4.65;;;1.13;;
63046;SDS011;62025;39.238;9.126;2024-01-07T04:44:56;10.40;;;1.73;;
63046;SDS011;62025;39.238;9.126;2024-01-07T04:47:23;11.48;;;2.03;;
63046;SDS011;62025;39.238;9.126;2024-01-07T04:49:57;6.38;;;1.30;;
63046;SDS011;62025;39.238;9.126;2024-01-07T04:52:23;8.35;;;1.60;;
63046;SDS011;62025;39.238;9.126;2024-01-07T04:54:50;9.25;;;2.80;;
63046;SDS011;62025;39.238;9.126;2024-01-07T04:57:17;13.77;;;1.73;;
63046;SDS011;62025;39.238;9.126;2024-01-07T04:59:44;8.70;;;1.35;;
63046;SDS011;62025;39.238;9.126;2024-01-07T05:02:11;9.57;;;1.42;;
63046;SDS011;62025;39.238;9.126;2024-01-07T05:04:37;6.30;;;1.48;;
63046;SDS011;62025;39.238;9.126;2024-01-07T05:07:03;13.15;;;1.67;;
63046;SDS011;62025;39.238;9.126;2024-01-07T05:09:30;8.82;;;1.60;;
63046;SDS011;62025;39.238;9.126;2024-01-07T05:11:57;9.05;;;1.35;;
63046;SDS011;62025;39.238;9.126;2024-01-07T05:14:24;10.45;;;1.40;;
63046;SDS011;62025;39.238;9.126;2024-01-07T05:16:50;7.28;;;1.55;;
63046;SDS011;62025;39.238;9.126;2024-01-07T05:19:16;5.80;;;1.30;;
63046;SDS011;62025;39.238;9.126;2024-01-07T05:21:42;8.63;;;1.60;;
63046;SDS011;62025;39.238;9.126;2024-01-07T05:24:08;7.72;;;1.23;;
63046;SDS011;62025;39.238;9.126;2024-01-07T05:26:43;8.45;;;1.52;;
63046;SDS011;62025;39.238;9.126;2024-01-07T05:29:10;5.45;;;1.30;;
63046;SDS011;62025;39.238;9.126;2024-01-07T05:31:40;9.52;;;1.23;;
63046;SDS011;62025;39.238;9.126;2024-01-07T05:34:06;6.03;;;1.20;;
63046;SDS011;62025;39.238;9.126;2024-01-07T05:36:32;7.18;;;1.08;;
63046;SDS011;62025;39.238;9.126;2024-01-07T05:38:58;8.70;;;1.23;;
63046;SDS011;62025;39.238;9.126;2024-01-07T05:41:24;7.07;;;1.05;;
63046;SDS011;62025;39.238;9.126;2024-01-07T05:43:50;3.03;;;1.10;;
63046;SDS011;62025;39.238;9.126;2024-01-07T05:46:16;7.93;;;1.30;;
63046;SDS011;62025;39.238;9.126;2024-01-07T05:48:47;8.10;;;1.33;;
63046;SDS011;62025;39.238;9.126;2024-01-07T05:51:14;9.88;;;1.70;;
63046;SDS011;62025;39.238;9.126;2024-01-07T05:53:41;11.95;;;1.70;;
63046;SDS011;62025;39.238;9.126;2024-01-07T05:56:08;8.82;;;1.50;;
63046;SDS011;62025;39.238;9.126;2024-01-07T05:58:35;7.45;;;1.90;;
63046;SDS011;62025;39.238;9.126;2024-01-07T06:01:01;7.90;;;1.50;;
63046;SDS011;62025;39.238;9.126;2024-01-07T06:03:27;9.93;;;1.60;;
63046;SDS011;62025;39.238;9.126;2024-01-07T06:05:53;6.50;;;1.38;;
63046;SDS011;62025;39.238;9.126;2024-01-07T06:08:19;10.65;;;2.13;;
63046;SDS011;62025;39.238;9.126;2024-01-07T06:10:45;7.70;;;1.48;;
63046;SDS011;62025;39.238;9.126;2024-01-07T06:13:11;6.53;;;1.13;;
63046;SDS011;62025;39.238;9.126;2024-01-07T06:15:37;6.70;;;1.35;;
63046;SDS011;62025;39.238;9.126;2024-01-07T06:18:03;7.22;;;1.30;;
63046;SDS011;62025;39.238;9.126;2024-01-07T06:20:30;5.28;;;1.30;;
63046;SDS011;62025;39.238;9.126;2024-01-07T06:22:56;11.52;;;1.52;;
63046;SDS011;62025;39.238;9.126;2024-01-07T06:25:22;6.15;;;1.65;;
63046;SDS011;62025;39.238;9.126;2024-01-07T06:27:50;6.47;;;1.85;;
63046;SDS011;62025;39.238;9.126;2024-01-07T06:30:16;8.30;;;1.50;;
63046;SDS011;62025;39.238;9.126;2024-01-07T06:32:44;7.85;;;1.08;;
63046;SDS011;62025;39.238;9.126;2024-01-07T06:35:11;6.97;;;1.73;;
63046;SDS011;62025;39.238;9.126;2024-01-07T06:37:37;5.20;;;1.13;;
63046;SDS011;62025;39.238;9.126;2024-01-07T06:40:03;6.97;;;1.10;;
63046;SDS011;62025;39.238;9.126;2024-01-07T06:42:30;8.43;;;1.88;;
63046;SDS011;62025;39.238;9.126;2024-01-07T06:44:55;6.40;;;1.20;;
63046;SDS011;62025;39.238;9.126;2024-01-07T06:47:22;6.20;;;1.13;;
63046;SDS011;62025;39.238;9.126;2024-01-07T06:49:48;8.00;;;1.98;;
63046;SDS011;62025;39.238;9.126;2024-01-07T06:52:14;7.15;;;1.95;;
63046;SDS011;62025;39.238;9.126;2024-01-07T06:54:40;5.80;;;1.30;;
63046;SDS011;62025;39.238;9.126;2024-01-07T06:57:06;7.93;;;1.42;;
63046;SDS011;62025;39.238;9.126;2024-01-07T06:59:32;5.35;;;1.40;;
63046;SDS011;62025;39.238;9.126;2024-01-07T07:01:58;9.75;;;1.60;;
63046;SDS011;62025;39.238;9.126;2024-01-07T07:04:24;9.13;;;1.42;;
63046;SDS011;62025;39.238;9.126;2024-01-07T07:06:50;7.25;;;1.58;;
63046;SDS011;62025;39.238;9.126;2024-01-07T07:09:16;7.82;;;1.60;;
63046;SDS011;62025;39.238;9.126;2024-01-07T07:11:42;8.45;;;1.50;;
63046;SDS011;62025;39.238;9.126;2024-01-07T07:14:08;5.72;;;1.40;;
63046;SDS011;62025;39.238;9.126;2024-01-07T07:16:34;7.43;;;1.70;;
63046;SDS011;62025;39.238;9.126;2024-01-07T07:19:00;6.00;;;1.33;;
63046;SDS011;62025;39.238;9.126;2024-01-07T07:21:26;4.38;;;1.65;;
63046;SDS011;62025;39.238;9.126;2024-01-07T07:23:52;4.90;;;0.80;;
63046;SDS011;62025;39.238;9.126;2024-01-07T07:26:19;6.75;;;1.58;;
63046;SDS011;62025;39.238;9.126;2024-01-07T07:28:45;5.32;;;1.40;;
63046;SDS011;62025;39.238;9.126;2024-01-07T07:31:12;7.13;;;2.08;;
63046;SDS011;62025;39.238;9.126;2024-01-07T07:33:38;4.72;;;0.93;;
63046;SDS011;62025;39.238;9.126;2024-01-07T07:36:05;7.80;;;1.15;;
63046;SDS011;62025;39.238;9.126;2024-01-07T07:38:32;7.18;;;1.33;;
63046;SDS011;62025;39.238;9.126;2024-01-07T07:40:59;9.18;;;1.65;;
63046;SDS011;62025;39.238;9.126;2024-01-07T07:43:25;5.95;;;1.58;;
63046;SDS011;62025;39.238;9.126;2024-01-07T07:45:51;4.50;;;1.10;;
63046;SDS011;62025;39.238;9.126;2024-01-07T07:48:21;8.70;;;1.80;;
63046;SDS011;62025;39.238;9.126;2024-01-07T07:50:47;8.35;;;2.05;;
63046;SDS011;62025;39.238;9.126;2024-01-07T07:53:14;8.32;;;2.05;;
63046;SDS011;62025;39.238;9.126;2024-01-07T07:55:40;6.70;;;1.65;;
63046;SDS011;62025;39.238;9.126;2024-01-07T07:58:06;5.15;;;1.45;;
63046;SDS011;62025;39.238;9.126;2024-01-07T08:00:33;9.75;;;1.98;;
63046;SDS011;62025;39.238;9.126;2024-01-07T08:02:59;9.85;;;1.70;;
63046;SDS011;62025;39.238;9.126;2024-01-07T08:05:25;8.75;;;1.63;;
63046;SDS011;62025;39.238;9.126;2024-01-07T08:07:51;6.95;;;1.42;;
63046;SDS011;62025;39.238;9.126;2024-01-07T08:10:17;6.90;;;1.77;;
63046;SDS011;62025;39.238;9.126;2024-01-07T08:12:43;4.70;;;1.20;;
63046;SDS011;62025;39.238;9.126;2024-01-07T08:15:09;5.20;;;1.20;;
63046;SDS011;62025;39.238;9.126;2024-01-07T08:17:35;6.72;;;1.40;;
63046;SDS011;62025;39.238;9.126;2024-01-07T08:20:01;7.15;;;1.20;;
63046;SDS011;62025;39.238;9.126;2024-01-07T08:22:28;6.85;;;2.15;;
63046;SDS011;62025;39.238;9.126;2024-01-07T08:24:55;6.63;;;1.48;;
63046;SDS011;62025;39.238;9.126;2024-01-07T08:27:21;7.10;;;1.75;;
63046;SDS011;62025;39.238;9.126;2024-01-07T08:29:47;3.78;;;1.23;;
63046;SDS011;62025;39.238;9.126;2024-01-07T08:32:13;5.63;;;1.30;;
63046;SDS011;62025;39.238;9.126;2024-01-07T08:34:39;7.78;;;1.38;;
63046;SDS011;62025;39.238;9.126;2024-01-07T08:37:06;6.18;;;1.95;;
63046;SDS011;62025;39.238;9.126;2024-01-07T08:39:34;5.82;;;1.65;;
63046;SDS011;62025;39.238;9.126;2024-01-07T08:42:00;5.72;;;1.52;;
63046;SDS011;62025;39.238;9.126;2024-01-07T08:44:26;11.43;;;1.60;;
63046;SDS011;62025;39.238;9.126;2024-01-07T08:46:52;8.75;;;1.42;;
63046;SDS011;62025;39.238;9.126;2024-01-07T08:49:18;5.22;;;1.45;;
63046;SDS011;62025;39.238;9.126;2024-01-07T08:51:44;8.85;;;1.45;;
63046;SDS011;62025;39.238;9.126;2024-01-07T08:54:10;10.43;;;1.80;;
63046;SDS011;62025;39.238;9.126;2024-01-07T08:56:36;8.85;;;2.30;;
63046;SDS011;62025;39.238;9.126;2024-01-07T08:59:02;10.40;;;1.70;;
63046;SDS011;62025;39.238;9.126;2024-01-07T09:01:29;7.40;;;1.88;;
63046;SDS011;62025;39.238;9.126;2024-01-07T09:03:55;3.58;;;1.10;;
63046;SDS011;62025;39.238;9.126;2024-01-07T09:06:21;4.03;;;1.40;;
63046;SDS011;62025;39.238;9.126;2024-01-07T09:08:47;6.53;;;1.20;;
63046;SDS011;62025;39.238;9.126;2024-01-07T09:11:13;5.22;;;1.20;;
63046;SDS011;62025;39.238;9.126;2024-01-07T09:13:39;5.68;;;1.45;;
63046;SDS011;62025;39.238;9.126;2024-01-07T09:16:05;3.13;;;1.05;;
63046;SDS011;62025;39.238;9.126;2024-01-07T09:21:00;6.15;;;1.48;;
63046;SDS011;62025;39.238;9.126;2024-01-07T09:23:26;7.43;;;1.40;;
63046;SDS011;62025;39.238;9.126;2024-01-07T09:25:52;8.45;;;1.73;;
63046;SDS011;62025;39.238;9.126;2024-01-07T09:28:18;8.07;;;1.48;;
63046;SDS011;62025;39.238;9.126;2024-01-07T09:30:44;6.45;;;1.25;;
63046;SDS011;62025;39.238;9.126;2024-01-07T09:33:10;10.55;;;1.40;;
63046;SDS011;62025;39.238;9.126;2024-01-07T09:35:36;6.90;;;1.73;;
63046;SDS011;62025;39.238;9.126;2024-01-07T09:38:02;6.78;;;1.35;;
63046;SDS011;62025;39.238;9.126;2024-01-07T09:40:29;6.70;;;1.30;;
63046;SDS011;62025;39.238;9.126;2024-01-07T09:42:55;4.90;;;1.20;;
63046;SDS011;62025;39.238;9.126;2024-01-07T09:45:21;5.88;;;1.58;;
63046;SDS011;62025;39.238;9.126;2024-01-07T09:47:48;7.40;;;1.67;;
63046;SDS011;62025;39.238;9.126;2024-01-07T09:50:14;9.32;;;1.98;;
63046;SDS011;62025;39.238;9.126;2024-01-07T09:52:42;8.52;;;2.10;;
63046;SDS011;62025;39.238;9.126;2024-01-07T09:55:18;5.82;;;2.28;;
63046;SDS011;62025;39.238;9.126;2024-01-07T09:57:55;5.38;;;1.50;;
63046;SDS011;62025;39.238;9.126;2024-01-07T10:00:21;8.35;;;1.90;;
63046;SDS011;62025;39.238;9.126;2024-01-07T10:02:47;4.22;;;1.50;;
63046;SDS011;62025;39.238;9.126;2024-01-07T10:05:13;4.65;;;1.27;;
63046;SDS011;62025;39.238;9.126;2024-01-07T10:07:39;6.25;;;1.48;;
63046;SDS011;62025;39.238;9.126;2024-01-07T10:10:12;5.32;;;1.30;;
63046;SDS011;62025;39.238;9.126;2024-01-07T10:12:45;7.82;;;1.70;;
63046;SDS011;62025;39.238;9.126;2024-01-07T10:15:12;7.57;;;2.45;;
63046;SDS011;62025;39.238;9.126;2024-01-07T10:17:42;5.22;;;2.40;;
63046;SDS011;62025;39.238;9.126;2024-01-07T10:20:08;6.55;;;1.48;;
63046;SDS011;62025;39.238;9.126;2024-01-07T10:22:36;4.25;;;1.60;;
63046;SDS011;62025;39.238;9.126;2024-01-07T10:25:05;7.80;;;2.00;;
63046;SDS011;62025;39.238;9.126;2024-01-07T10:27:35;6.20;;;1.67;;
63046;SDS011;62025;39.238;9.126;2024-01-07T10:30:02;6.18;;;1.48;;
63046;SDS011;62025;39.238;9.126;2024-01-07T10:32:28;7.15;;;1.45;;
63046;SDS011;62025;39.238;9.126;2024-01-07T10:34:57;6.70;;;1.60;;
63046;SDS011;62025;39.238;9.126;2024-01-07T10:37:28;5.85;;;2.17;;
63046;SDS011;62025;39.238;9.126;2024-01-07T10:39:56;5.07;;;1.38;;
63046;SDS011;62025;39.238;9.126;2024-01-07T10:42:33;4.40;;;1.20;;
63046;SDS011;62025;39.238;9.126;2024-01-07T10:45:00;7.68;;;1.40;;
63046;SDS011;62025;39.238;9.126;2024-01-07T10:47:30;5.70;;;1.30;;
63046;SDS011;62025;39.238;9.126;2024-01-07T10:49:57;7.40;;;1.48;;
63046;SDS011;62025;39.238;9.126;2024-01-07T10:52:26;4.93;;;1.40;;
63046;SDS011;62025;39.238;9.126;2024-01-07T10:54:53;9.85;;;1.40;;
63046;SDS011;62025;39.238;9.126;2024-01-07T11:00:09;5.43;;;1.45;;
63046;SDS011;62025;39.238;9.126;2024-01-07T11:05:40;6.18;;;2.13;;
63046;SDS011;62025;39.238;9.126;2024-01-07T11:10:58;4.47;;;1.88;;
63046;SDS011;62025;39.238;9.126;2024-01-07T11:13:35;5.97;;;2.15;;
63046;SDS011;62025;39.238;9.126;2024-01-07T11:16:03;6.35;;;1.60;;
63046;SDS011;62025;39.238;9.126;2024-01-07T11:18:37;7.50;;;1.90;;
63046;SDS011;62025;39.238;9.126;2024-01-07T11:21:22;4.78;;;1.42;;
63046;SDS011;62025;39.238;9.126;2024-01-07T11:23:50;6.13;;;1.42;;
63046;SDS011;62025;39.238;9.126;2024-01-07T11:26:18;4.97;;;1.47;;
63046;SDS011;62025;39.238;9.126;2024-01-07T11:28:55;5.18;;;1.27;;
63046;SDS011;62025;39.238;9.126;2024-01-07T11:34:07;7.57;;;1.77;;
63046;SDS011;62025;39.238;9.126;2024-01-07T11:36:37;8.18;;;1.50;;
63046;SDS011;62025;39.238;9.126;2024-01-07T11:39:04;7.68;;;1.45;;
63046;SDS011;62025;39.238;9.126;2024-01-07T11:41:34;8.07;;;1.75;;
63046;SDS011;62025;39.238;9.126;2024-01-07T11:44:01;6.85;;;1.33;;
63046;SDS011;62025;39.238;9.126;2024-01-07T11:46:28;9.57;;;2.03;;
63046;SDS011;62025;39.238;9.126;2024-01-07T11:48:57;6.43;;;1.98;;
63046;SDS011;62025;39.238;9.126;2024-01-07T11:51:27;6.15;;;1.50;;
63046;SDS011;62025;39.238;9.126;2024-01-07T11:53:56;5.75;;;1.45;;
63046;SDS011;62025;39.238;9.126;2024-01-07T11:56:27;10.52;;;2.50;;
63046;SDS011;62025;39.238;9.126;2024-01-07T11:58:53;11.90;;;2.50;;
63046;SDS011;62025;39.238;9.126;2024-01-07T12:01:21;10.25;;;2.47;;
63046;SDS011;62025;39.238;9.126;2024-01-07T12:03:47;8.43;;;2.10;;
63046;SDS011;62025;39.238;9.126;2024-01-07T12:06:15;9.48;;;2.33;;
63046;SDS011;62025;39.238;9.126;2024-01-07T12:08:42;5.90;;;1.92;;
63046;SDS011;62025;39.238;9.126;2024-01-07T12:11:09;9.77;;;1.83;;
63046;SDS011;62025;39.238;9.126;2024-01-07T12:13:37;10.23;;;2.20;;
63046;SDS011;62025;39.238;9.126;2024-01-07T12:16:07;9.80;;;2.42;;
63046;SDS011;62025;39.238;9.126;2024-01-07T12:18:38;11.35;;;1.83;;
63046;SDS011;62025;39.238;9.126;2024-01-07T12:21:04;10.00;;;2.00;;
63046;SDS011;62025;39.238;9.126;2024-01-07T12:23:34;6.10;;;2.05;;
63046;SDS011;62025;39.238;9.126;2024-01-07T12:26:09;10.80;;;2.53;;
63046;SDS011;62025;39.238;9.126;2024-01-07T12:28:36;12.68;;;2.47;;
63046;SDS011;62025;39.238;9.126;2024-01-07T12:31:03;10.88;;;2.80;;
63046;SDS011;62025;39.238;9.126;2024-01-07T12:33:30;7.80;;;2.30;;
63046;SDS011;62025;39.238;9.126;2024-01-07T12:36:00;8.35;;;2.50;;
63046;SDS011;62025;39.238;9.126;2024-01-07T12:38:27;11.93;;;3.13;;
63046;SDS011;62025;39.238;9.126;2024-01-07T12:40:53;10.48;;;3.35;;
63046;SDS011;62025;39.238;9.126;2024-01-07T12:43:19;11.35;;;3.10;;
63046;SDS011;62025;39.238;9.126;2024-01-07T12:45:47;14.05;;;3.65;;
63046;SDS011;62025;39.238;9.126;2024-01-07T12:48:14;17.57;;;2.80;;
63046;SDS011;62025;39.238;9.126;2024-01-07T12:50:40;6.85;;;2.38;;
63046;SDS011;62025;39.238;9.126;2024-01-07T12:53:06;10.73;;;3.08;;
63046;SDS011;62025;39.238;9.126;2024-01-07T12:55:32;12.57;;;3.60;;
63046;SDS011;62025;39.238;9.126;2024-01-07T12:57:58;9.88;;;2.35;;
63046;SDS011;62025;39.238;9.126;2024-01-07T13:00:25;8.40;;;2.00;;
63046;SDS011;62025;39.238;9.126;2024-01-07T13:02:53;8.98;;;1.83;;
63046;SDS011;62025;39.238;9.126;2024-01-07T13:05:21;7.57;;;1.92;;
63046;SDS011;62025;39.238;9.126;2024-01-07T13:07:48;10.68;;;2.63;;
63046;SDS011;62025;39.238;9.126;2024-01-07T13:10:15;12.38;;;2.40;;
63046;SDS011;62025;39.238;9.126;2024-01-07T13:12:41;9.18;;;2.20;;
63046;SDS011;62025;39.238;9.126;2024-01-07T13:15:08;9.50;;;1.98;;
63046;SDS011;62025;39.238;9.126;2024-01-07T13:17:34;10.45;;;2.00;;
63046;SDS011;62025;39.238;9.126;2024-01-07T13:20:00;7.15;;;1.60;;
63046;SDS011;62025;39.238;9.126;2024-01-07T13:22:26;8.10;;;1.77;;
63046;SDS011;62025;39.238;9.126;2024-01-07T13:24:52;7.07;;;1.80;;
63046;SDS011;62025;39.238;9.126;2024-01-07T13:27:22;9.15;;;1.83;;
63046;SDS011;62025;39.238;9.126;2024-01-07T13:29:49;5.65;;;1.55;;
63046;SDS011;62025;39.238;9.126;2024-01-07T13:32:15;5.45;;;1.67;;
63046;SDS011;62025;39.238;9.126;2024-01-07T13:34:43;6.82;;;2.22;;
63046;SDS011;62025;39.238;9.126;2024-01-07T13:37:09;7.47;;;1.73;;
63046;SDS011;62025;39.238;9.126;2024-01-07T13:39:35;3.42;;;1.20;;
63046;SDS011;62025;39.238;9.126;2024-01-07T13:42:03;5.05;;;1.38;;
63046;SDS011;62025;39.238;9.126;2024-01-07T13:44:30;9.25;;;1.80;;
63046;SDS011;62025;39.238;9.126;2024-01-07T13:46:56;6.30;;;2.22;;
63046;SDS011;62025;39.238;9.126;2024-01-07T13:49:22;8.63;;;2.10;;
63046;SDS011;62025;39.238;9.126;2024-01-07T13:51:48;11.88;;;2.30;;
63046;SDS011;62025;39.238;9.126;2024-01-07T13:54:14;5.80;;;1.42;;
63046;SDS011;62025;39.238;9.126;2024-01-07T13:56:41;6.82;;;1.30;;
63046;SDS011;62025;39.238;9.126;2024-01-07T13:59:09;6.55;;;1.52;;
63046;SDS011;62025;39.238;9.126;2024-01-07T14:01:36;16.35;;;2.30;;
63046;SDS011;62025;39.238;9.126;2024-01-07T14:04:02;7.25;;;1.67;;
63046;SDS011;62025;39.238;9.126;2024-01-07T14:06:29;8.90;;;1.55;;
63046;SDS011;62025;39.238;9.126;2024-01-07T14:08:56;5.18;;;1.30;;
63046;SDS011;62025;39.238;9.126;2024-01-07T14:11:23;4.68;;;1.63;;
63046;SDS011;62025;39.238;9.126;2024-01-07T14:13:50;3.90;;;1.10;;
63046;SDS011;62025;39.238;9.126;2024-01-07T14:16:16;4.03;;;1.30;;
63046;SDS011;62025;39.238;9.126;2024-01-07T14:18:42;3.35;;;1.20;;
63046;SDS011;62025;39.238;9.126;2024-01-07T14:21:08;3.67;;;1.30;;
63046;SDS011;62025;39.238;9.126;2024-01-07T14:23:34;5.10;;;1.60;;
63046;SDS011;62025;39.238;9.126;2024-01-07T14:26:01;4.90;;;1.40;;
63046;SDS011;62025;39.238;9.126;2024-01-07T14:28:28;3.72;;;1.20;;
63046;SDS011;62025;39.238;9.126;2024-01-07T14:30:54;5.82;;;1.10;;
63046;SDS011;62025;39.238;9.126;2024-01-07T14:33:20;4.55;;;1.10;;
63046;SDS011;62025;39.238;9.126;2024-01-07T14:35:46;5.25;;;1.38;;
63046;SDS011;62025;39.238;9.126;2024-01-07T14:38:12;4.78;;;1.10;;
63046;SDS011;62025;39.238;9.126;2024-01-07T14:40:38;2.83;;;1.40;;
63046;SDS011;62025;39.238;9.126;2024-01-07T14:43:06;7.78;;;1.42;;
63046;SDS011;62025;39.238;9.126;2024-01-07T14:45:32;3.60;;;1.42;;
63046;SDS011;62025;39.238;9.126;2024-01-07T14:48:00;6.88;;;1.58;;
63046;SDS011;62025;39.238;9.126;2024-01-07T14:50:26;6.32;;;1.50;;
63046;SDS011;62025;39.238;9.126;2024-01-07T14:52:52;6.32;;;1.60;;
63046;SDS011;62025;39.238;9.126;2024-01-07T14:55:17;4.13;;;1.48;;
63046;SDS011;62025;39.238;9.126;2024-01-07T14:57:44;5.10;;;1.48;;